createdAt,value
2023-05-23T00:07:20.008Z,63.48
2023-05-23T00:18:09.603Z,63.63
2023-05-23T00:29:18.471Z,63.54
2023-05-23T00:40:32.991Z,63.65
2023-05-23T00:51:42.875Z,64.41
2023-05-23T01:02:08.583Z,65.30
2023-05-23T01:12:55.164Z,66.30
2023-05-23T01:24:26.549Z,67.01
2023-05-23T01:34:57.089Z,67.45
2023-05-23T01:45:22.456Z,67.77
2023-05-23T01:55:49.658Z,67.83
2023-05-23T02:06:21.470Z,67.73
2023-05-23T02:16:49.128Z,67.26
2023-05-23T02:28:18.715Z,67.04
2023-05-23T02:39:00.184Z,67.50
2023-05-23T02:50:18.605Z,67.68
2023-05-23T03:01:07.603Z,67.86
2023-05-23T03:12:13.858Z,68.15
2023-05-23T03:34:33.645Z,69.90
2023-05-23T03:45:29.736Z,70.15
2023-05-23T03:56:09.009Z,69.48
2023-05-23T04:06:45.811Z,68.84
2023-05-23T04:17:32.019Z,68.81
2023-05-23T04:28:50.851Z,69.66
2023-05-23T04:39:19.837Z,70.12
2023-05-23T04:50:38.093Z,69.76
2023-05-23T05:01:29.910Z,69.53
2023-05-23T05:12:18.493Z,69.18
2023-05-23T05:22:51.598Z,68.73
2023-05-23T05:33:36.810Z,68.52
2023-05-23T05:44:26.715Z,68.52
2023-05-23T05:54:51.992Z,68.30
2023-05-23T06:05:20.651Z,69.20
2023-05-23T06:16:28.972Z,71.36
2023-05-23T06:27:07.830Z,72.24
2023-05-23T06:37:46.055Z,72.48
2023-05-23T06:48:14.512Z,72.80
2023-05-23T06:58:40.366Z,73.31
2023-05-23T07:09:05.206Z,73.86
2023-05-23T07:19:34.039Z,74.12
2023-05-23T07:30:45.429Z,74.31
2023-05-23T07:41:14.327Z,76.50
2023-05-23T07:51:47.133Z,78.37
2023-05-23T08:02:32.002Z,78.03
2023-05-23T08:13:29.923Z,77.45
2023-05-23T08:24:19.063Z,75.88
2023-05-23T08:34:47.526Z,74.44
2023-05-23T08:45:23.789Z,71.77
2023-05-23T08:55:56.827Z,70.20
2023-05-23T09:06:23.581Z,67.88
2023-05-23T09:16:49.730Z,66.97
2023-05-23T09:27:34.029Z,66.44
2023-05-23T09:38:29.956Z,67.48
2023-05-23T09:49:18.904Z,67.89
2023-05-23T09:59:58.807Z,67.70
2023-05-23T10:10:46.911Z,66.00
2023-05-23T10:21:21.956Z,65.43
2023-05-23T10:32:08.058Z,65.20
2023-05-23T10:42:43.805Z,65.32
2023-05-23T10:54:01.763Z,62.88
2023-05-23T11:27:54.511Z,60.88
2023-05-23T11:38:39.746Z,59.84
2023-05-23T11:49:12.143Z,60.22
2023-05-23T12:00:22.157Z,62.44
2023-05-23T12:11:06.581Z,62.13
2023-05-23T12:22:22.856Z,59.99
2023-05-23T12:32:52.001Z,57.62
2023-05-23T12:43:20.908Z,56.30
2023-05-23T12:54:46.929Z,54.81
2023-05-23T13:05:27.961Z,53.80
2023-05-23T13:15:53.131Z,52.56
2023-05-23T13:26:22.530Z,52.56
2023-05-23T13:37:04.404Z,51.95
2023-05-23T13:47:34.009Z,50.98
2023-05-23T13:58:10.575Z,51.57
2023-05-23T14:08:41.687Z,50.16
2023-05-23T14:19:10.437Z,51.46
2023-05-23T14:30:18.029Z,54.62
2023-05-23T14:41:05.361Z,56.33
2023-05-23T14:52:14.615Z,57.98
2023-05-23T15:03:17.863Z,59.89
2023-05-23T15:14:43.776Z,61.15
2023-05-23T15:25:12.527Z,62.81
2023-05-23T15:36:13.551Z,64.70
2023-05-23T15:47:36.019Z,67.13
2023-05-23T15:59:04.874Z,66.73
2023-05-23T16:10:03.952Z,65.49
2023-05-23T16:31:37.117Z,63.32
2023-05-23T16:43:06.620Z,61.27
2023-05-23T16:53:58.590Z,60.60
2023-05-23T17:04:39.980Z,60.70
2023-05-23T17:15:13.818Z,61.12
2023-05-23T17:25:44.365Z,61.69
2023-05-23T17:36:35.447Z,59.77
2023-05-23T17:47:50.970Z,60.75
2023-05-23T17:58:27.176Z,61.92
2023-05-23T18:09:42.730Z,63.70
2023-05-23T18:20:09.067Z,65.37
2023-05-23T18:30:34.308Z,66.11
2023-05-23T18:40:59.962Z,67.72
2023-05-23T18:51:53.994Z,69.60
2023-05-23T19:03:23.365Z,70.79
2023-05-23T19:14:11.977Z,72.16
2023-05-23T19:24:43.800Z,73.08
2023-05-23T19:35:37.574Z,73.95
2023-05-23T19:46:32.998Z,74.57
2023-05-23T19:57:05.629Z,75.22
2023-05-23T20:08:08.512Z,76.39
2023-05-23T20:19:25.189Z,77.93
2023-05-23T21:14:02.270Z,82.29
2023-05-23T21:24:57.289Z,82.98
2023-05-23T21:35:22.770Z,84.16
2023-05-23T21:46:03.275Z,85.55
2023-05-23T21:57:01.064Z,86.89
2023-05-23T22:07:29.665Z,87.74
2023-05-23T22:18:09.985Z,88.58
2023-05-23T22:28:55.440Z,88.93
2023-05-23T22:39:40.652Z,89.15
2023-05-23T22:50:27.377Z,89.64
2023-05-23T23:01:04.447Z,89.82
2023-05-23T23:12:09.889Z,89.46
2023-05-23T23:22:40.522Z,89.64
2023-05-23T23:33:12.201Z,89.00
2023-05-23T23:43:57.968Z,89.35
2023-05-23T23:54:22.167Z,89.82
